Time;durP1;ratioP1;P1;durP2;ratioP2;P2;SDS_P1;SDS_P2;PMS_P1;PMS_P2;Temp;Humidity;BMP_temperature;BMP_pressure;BME280_temperature;BME280_humidity;BME280_pressure;Samples;Min_cycle;Max_cycle;Signal;HPM_P1;HPM_P2
2023/05/25 00:01:36;;;;;;;11.47;5.03;;;13.00;14.40;;;;;;4935622;29;20180;-81
2023/05/25 00:04:02;;;;;;;8.97;4.60;;;12.90;16.20;;;;;;4935584;29;20173;-84
2023/05/25 00:06:29;;;;;;;14.87;4.80;;;13.00;18.20;;;;;;4935342;29;20244;-82
2023/05/25 00:08:56;;;;;;;10.00;4.70;;;12.90;19.00;;;;;;4935394;29;20178;-82
2023/05/25 00:11:25;;;;;;;9.10;4.97;;;12.90;20.60;;;;;;4936113;29;20177;-82
2023/05/25 00:13:51;;;;;;;9.80;4.73;;;12.90;19.70;;;;;;4935375;29;20204;-82
2023/05/25 00:16:17;;;;;;;11.70;5.20;;;12.90;20.10;;;;;;4936730;29;20533;-83
2023/05/25 00:18:43;;;;;;;7.53;4.57;;;12.90;21.20;;;;;;4934642;29;20193;-82
2023/05/25 00:21:09;;;;;;;9.00;4.60;;;12.90;21.50;;;;;;4936606;29;20250;-82
2023/05/25 00:23:35;;;;;;;9.60;5.23;;;13.00;22.30;;;;;;4935141;29;20173;-81
2023/05/25 00:26:03;;;;;;;11.40;4.83;;;12.90;24.00;;;;;;4935432;29;20183;-81
2023/05/25 00:28:29;;;;;;;10.73;5.27;;;12.90;22.50;;;;;;4934582;29;20193;-82
2023/05/25 00:30:54;;;;;;;12.13;5.37;;;12.90;25.00;;;;;;4934872;29;20200;-82
2023/05/25 00:33:21;;;;;;;8.20;4.40;;;12.80;28.10;;;;;;4935434;29;20308;-83
2023/05/25 00:35:46;;;;;;;14.93;5.50;;;12.90;30.10;;;;;;4936855;29;20222;-82
2023/05/25 00:38:17;;;;;;;10.37;5.60;;;12.80;32.40;;;;;;4935644;29;20189;-81
2023/05/25 00:40:45;;;;;;;12.77;5.20;;;12.70;32.00;;;;;;4937387;29;20177;-82
2023/05/25 00:43:11;;;;;;;9.47;5.20;;;12.70;35.90;;;;;;4935997;29;20603;-81
2023/05/25 00:45:37;;;;;;;14.30;5.60;;;12.70;35.90;;;;;;4937175;29;20174;-81
2023/05/25 00:48:04;;;;;;;12.13;4.70;;;12.60;39.00;;;;;;4936963;29;20209;-81
2023/05/25 00:50:39;;;;;;;14.20;5.30;;;12.50;40.60;;;;;;4936285;29;20216;-82
2023/05/25 00:53:05;;;;;;;11.73;5.57;;;12.40;47.30;;;;;;4937481;29;20748;-82
2023/05/25 00:55:38;;;;;;;11.17;4.83;;;12.40;49.90;;;;;;4937480;29;20236;-84
2023/05/25 00:58:05;;;;;;;13.63;4.83;;;12.30;52.40;;;;;;4936674;29;20193;-83
2023/05/25 01:00:34;;;;;;;13.70;5.03;;;12.30;55.00;;;;;;4936263;29;20219;-82
2023/05/25 01:03:06;;;;;;;9.87;5.33;;;12.30;56.00;;;;;;4937220;29;20201;-82
2023/05/25 01:05:34;;;;;;;10.77;6.03;;;12.20;59.30;;;;;;4936718;29;20627;-83
2023/05/25 01:08:02;;;;;;;11.47;5.57;;;12.30;60.30;;;;;;4935391;29;20206;-82
2023/05/25 01:10:31;;;;;;;11.37;6.37;;;12.20;59.90;;;;;;4936354;29;20535;-81
2023/05/25 01:13:00;;;;;;;13.33;6.13;;;12.20;60.00;;;;;;4936097;29;20304;-82
2023/05/25 01:15:27;;;;;;;11.97;6.07;;;12.10;63.80;;;;;;4935898;29;20227;-81
2023/05/25 01:17:58;;;;;;;14.47;6.07;;;12.10;64.30;;;;;;4935104;29;20185;-81
2023/05/25 01:20:26;;;;;;;10.27;5.87;;;12.10;68.40;;;;;;4934979;29;20177;-83
2023/05/25 01:23:13;;;;;;;12.23;5.90;;;12.10;69.30;;;;;;4935102;29;20634;-84
2023/05/25 01:25:47;;;;;;;9.43;5.70;;;12.10;69.40;;;;;;4934790;29;20249;-82
2023/05/25 01:28:26;;;;;;;13.10;6.50;;;12.20;69.30;;;;;;4937818;29;20181;-82
2023/05/25 01:30:55;;;;;;;12.37;5.73;;;12.20;70.50;;;;;;4937808;29;20271;-83
2023/05/25 01:33:22;;;;;;;14.13;6.73;;;12.20;69.30;;;;;;4937930;29;20784;-81
2023/05/25 01:35:49;;;;;;;10.43;5.90;;;12.20;72.90;;;;;;4946044;29;20652;-82
2023/05/25 01:38:17;;;;;;;11.47;6.30;;;12.10;74.40;;;;;;4938273;29;20181;-83
2023/05/25 01:40:43;;;;;;;11.83;5.87;;;12.10;73.60;;;;;;4938879;29;20167;-84
2023/05/25 01:43:08;;;;;;;11.33;5.83;;;12.10;77.10;;;;;;4939003;29;20672;-82
2023/05/25 01:45:35;;;;;;;9.10;5.97;;;12.00;77.60;;;;;;4938683;29;20243;-82
2023/05/25 01:48:22;;;;;;;12.50;5.97;;;12.00;79.60;;;;;;4937497;29;20243;-83
2023/05/25 01:50:52;;;;;;;17.33;6.20;;;12.00;80.30;;;;;;4937652;29;20177;-82
2023/05/25 01:53:23;;;;;;;13.60;6.10;;;12.00;82.20;;;;;;4940779;29;20287;-80
2023/05/25 01:56:02;;;;;;;9.77;5.73;;;11.80;84.80;;;;;;4961109;28;20169;-82
2023/05/25 01:58:34;;;;;;;15.40;6.73;;;11.80;86.90;;;;;;4948692;29;20208;-82
2023/05/25 02:01:00;;;;;;;10.83;6.27;;;11.80;88.70;;;;;;4941568;29;20652;-82
2023/05/25 02:03:27;;;;;;;21.20;6.87;;;11.80;90.10;;;;;;4939176;29;20310;-81
2023/05/25 02:05:53;;;;;;;11.13;6.73;;;11.70;90.60;;;;;;4938457;29;20203;-81
2023/05/25 02:08:20;;;;;;;10.80;6.57;;;11.60;91.50;;;;;;4937916;29;20196;-82
2023/05/25 02:10:46;;;;;;;11.03;6.13;;;11.60;92.20;;;;;;4938771;29;20208;-82
2023/05/25 02:13:11;;;;;;;12.93;6.00;;;11.50;92.50;;;;;;4938179;29;20232;-81
2023/05/25 02:15:37;;;;;;;11.50;5.97;;;11.60;93.50;;;;;;4948407;29;20201;-80
2023/05/25 02:18:04;;;;;;;12.10;6.73;;;11.60;93.70;;;;;;4962330;28;20184;-81
2023/05/25 02:20:30;;;;;;;11.03;5.67;;;11.60;94.50;;;;;;4950630;28;20697;-82
2023/05/25 02:22:56;;;;;;;13.00;6.33;;;11.60;94.50;;;;;;4942471;29;20181;-81
2023/05/25 02:25:25;;;;;;;11.57;5.77;;;11.60;94.30;;;;;;4939338;29;20166;-83
2023/05/25 02:27:50;;;;;;;12.90;6.00;;;11.60;94.80;;;;;;4939013;29;20173;-81
2023/05/25 02:30:16;;;;;;;12.20;6.67;;;11.50;95.50;;;;;;4937165;29;20272;-84
2023/05/25 02:32:42;;;;;;;14.37;6.60;;;11.50;96.40;;;;;;4937176;29;20234;-81
2023/05/25 02:35:08;;;;;;;11.33;6.70;;;11.50;96.70;;;;;;4937129;29;20673;-82
2023/05/25 02:37:34;;;;;;;14.10;7.50;;;11.50;97.10;;;;;;4937876;29;20633;-81
2023/05/25 02:40:00;;;;;;;13.73;6.80;;;11.50;97.10;;;;;;4938640;29;20228;-81
2023/05/25 02:42:25;;;;;;;17.37;7.70;;;11.50;97.50;;;;;;4938560;29;20200;-81
2023/05/25 02:44:51;;;;;;;11.13;6.47;;;11.50;98.30;;;;;;4938235;29;20169;-81
2023/05/25 02:47:17;;;;;;;13.67;6.73;;;11.50;98.80;;;;;;4937526;29;20721;-81
2023/05/25 02:49:44;;;;;;;17.77;7.93;;;11.40;98.90;;;;;;4938449;29;20169;-82
2023/05/25 02:52:10;;;;;;;12.57;7.80;;;11.40;99.40;;;;;;4937921;29;20201;-81
2023/05/25 02:54:36;;;;;;;13.73;7.37;;;11.30;99.70;;;;;;4942472;29;20181;-80
2023/05/25 02:57:03;;;;;;;11.13;6.70;;;11.30;99.90;;;;;;4960201;29;20184;-82
2023/05/25 02:59:29;;;;;;;15.40;7.20;;;11.30;99.90;;;;;;4957264;29;20189;-81
2023/05/25 03:01:55;;;;;;;14.93;7.77;;;11.30;99.90;;;;;;4956541;29;20173;-82
2023/05/25 03:04:20;;;;;;;13.60;6.53;;;11.30;99.90;;;;;;4939764;29;20207;-82
2023/05/25 03:06:46;;;;;;;12.57;7.00;;;11.30;99.90;;;;;;4940756;29;20196;-83
2023/05/25 03:09:15;;;;;;;13.63;6.70;;;11.30;99.90;;;;;;4938854;29;20227;-83
2023/05/25 03:11:41;;;;;;;12.70;6.37;;;11.30;99.90;;;;;;4937530;29;20234;-81
2023/05/25 03:14:06;;;;;;;12.73;6.27;;;11.30;99.90;;;;;;4936099;29;20221;-81
2023/05/25 03:16:35;;;;;;;13.80;6.60;;;11.30;99.90;;;;;;4936401;29;20672;-83
2023/05/25 03:19:01;;;;;;;12.70;6.33;;;11.40;99.90;;;;;;4936268;29;20537;-83
2023/05/25 03:21:27;;;;;;;15.40;6.63;;;11.40;99.90;;;;;;4936074;29;20177;-83
2023/05/25 03:23:53;;;;;;;13.03;6.37;;;11.30;99.90;;;;;;4937548;29;20700;-83
2023/05/25 03:26:18;;;;;;;14.10;7.30;;;11.20;99.90;;;;;;4935943;29;20534;-84
2023/05/25 03:28:44;;;;;;;19.47;7.63;;;11.20;99.90;;;;;;4936463;29;20564;-83
2023/05/25 03:31:11;;;;;;;15.83;7.23;;;11.20;99.90;;;;;;4940827;29;20670;-81
2023/05/25 03:33:37;;;;;;;16.40;6.53;;;11.20;99.90;;;;;;4939335;29;20211;-82
2023/05/25 03:36:07;;;;;;;14.07;7.13;;;11.10;99.90;;;;;;4936782;29;20196;-82
2023/05/25 03:38:34;;;;;;;17.07;7.63;;;11.10;99.90;;;;;;4937762;29;20203;-82
2023/05/25 03:41:00;;;;;;;15.60;7.33;;;11.10;99.90;;;;;;4938007;29;20169;-81
2023/05/25 03:43:26;;;;;;;12.67;7.10;;;11.30;99.90;;;;;;4937544;29;20307;-82
2023/05/25 03:45:52;;;;;;;13.47;7.47;;;11.10;99.90;;;;;;4937760;29;20642;-81
2023/05/25 03:48:17;;;;;;;13.47;7.27;;;11.10;99.90;;;;;;4948641;29;20177;-81
2023/05/25 03:50:43;;;;;;;15.60;7.37;;;11.10;99.90;;;;;;4955078;29;20184;-81
2023/05/25 03:53:09;;;;;;;16.37;8.00;;;11.10;99.90;;;;;;4947852;29;20216;-81
2023/05/25 03:55:34;;;;;;;17.63;8.07;;;11.10;99.90;;;;;;4945992;29;20177;-83
2023/05/25 03:58:00;;;;;;;15.00;7.53;;;11.10;99.90;;;;;;4943058;29;20177;-82
2023/05/25 04:00:26;;;;;;;15.57;7.73;;;11.00;99.90;;;;;;4942582;29;20184;-80
2023/05/25 04:02:52;;;;;;;14.70;8.13;;;11.20;99.90;;;;;;4942514;29;20193;-81
2023/05/25 04:05:20;;;;;;;11.50;7.30;;;11.10;99.90;;;;;;4947461;29;20264;-83
2023/05/25 04:07:46;;;;;;;17.53;7.50;;;11.00;99.90;;;;;;4952215;28;20180;-82
2023/05/25 04:10:12;;;;;;;14.03;7.67;;;11.00;99.90;;;;;;4951353;28;20185;-83
2023/05/25 04:12:37;;;;;;;18.47;8.40;;;11.00;99.90;;;;;;4936263;29;20586;-81
2023/05/25 04:15:04;;;;;;;14.90;7.13;;;11.20;99.90;;;;;;4946674;29;20204;-82
2023/05/25 04:17:35;;;;;;;12.13;7.67;;;11.00;99.90;;;;;;4942216;29;20181;-82
2023/05/25 04:20:05;;;;;;;15.10;7.23;;;11.00;99.90;;;;;;4947185;29;20170;-81
2023/05/25 04:22:43;;;;;;;15.73;7.83;;;11.00;99.90;;;;;;4949493;29;20172;-84
2023/05/25 04:25:44;;;;;;;18.10;7.73;;;11.00;99.90;;;;;;4942259;29;20652;-82
2023/05/25 04:28:11;;;;;;;18.40;7.47;;;11.10;99.90;;;;;;4936934;29;20692;-82
2023/05/25 04:31:25;;;;;;;13.57;8.60;;;11.00;99.90;;;;;;4935606;29;20165;-81
2023/05/25 04:33:54;;;;;;;17.23;8.00;;;11.10;99.90;;;;;;4936536;29;20204;-83
2023/05/25 04:36:21;;;;;;;17.37;7.83;;;11.20;99.90;;;;;;4936735;29;20165;-82
2023/05/25 04:38:47;;;;;;;15.33;7.17;;;11.20;99.50;;;;;;4936644;29;20216;-85
2023/05/25 04:41:16;;;;;;;17.43;7.87;;;11.10;98.00;;;;;;4937129;29;20197;-82
2023/05/25 04:43:44;;;;;;;16.87;7.87;;;11.10;98.10;;;;;;4935208;29;20267;-81
2023/05/25 04:46:12;;;;;;;17.20;8.03;;;11.20;98.40;;;;;;4936750;29;20185;-83
2023/05/25 04:48:39;;;;;;;14.90;7.77;;;11.20;97.80;;;;;;4935297;29;20196;-84
2023/05/25 04:51:06;;;;;;;16.47;8.23;;;11.30;96.30;;;;;;4934701;29;20181;-84
2023/05/25 04:53:34;;;;;;;17.30;7.10;;;11.60;94.90;;;;;;4935452;29;20239;-83
2023/05/25 04:56:00;;;;;;;17.47;7.70;;;11.60;91.30;;;;;;4937968;29;20692;-82
2023/05/25 04:58:28;;;;;;;13.37;7.37;;;11.50;82.80;;;;;;4959481;28;20192;-81
2023/05/25 05:00:54;;;;;;;14.90;7.70;;;11.30;87.80;;;;;;4944770;29;20196;-83
2023/05/25 05:03:20;;;;;;;16.97;8.17;;;11.30;91.90;;;;;;4941313;29;20646;-82
2023/05/25 05:05:47;;;;;;;15.77;7.23;;;11.30;89.30;;;;;;4940492;29;20165;-83
2023/05/25 05:08:13;;;;;;;12.63;6.97;;;11.40;90.60;;;;;;4939918;29;20197;-82
2023/05/25 05:10:39;;;;;;;15.53;7.63;;;11.30;89.90;;;;;;4940554;29;20196;-82
2023/05/25 05:13:05;;;;;;;16.57;7.20;;;11.30;83.90;;;;;;4938764;29;20258;-83
2023/05/25 05:15:31;;;;;;;14.10;7.10;;;11.40;83.00;;;;;;4939398;29;20177;-81
2023/05/25 05:17:56;;;;;;;17.43;7.93;;;11.40;83.60;;;;;;4953437;28;20169;-81
2023/05/25 05:20:22;;;;;;;13.30;7.77;;;11.40;81.20;;;;;;4961924;28;20216;-82
2023/05/25 05:22:48;;;;;;;13.10;7.77;;;11.40;77.10;;;;;;4947141;29;20212;-80
2023/05/25 05:25:14;;;;;;;12.80;6.70;;;11.40;75.90;;;;;;4945390;29;20173;-81
2023/05/25 05:27:39;;;;;;;14.47;7.27;;;11.30;76.80;;;;;;4942352;29;20181;-83
2023/05/25 05:30:06;;;;;;;15.67;7.23;;;11.30;77.70;;;;;;4939002;29;20558;-82
2023/05/25 05:32:32;;;;;;;16.83;7.87;;;11.30;78.20;;;;;;4938591;29;20205;-83
2023/05/25 05:34:58;;;;;;;14.30;7.60;;;11.40;79.10;;;;;;4941366;29;20754;-82
2023/05/25 05:37:23;;;;;;;13.93;7.30;;;11.50;77.30;;;;;;4938104;29;20333;-82
2023/05/25 05:39:51;;;;;;;15.40;8.03;;;11.60;68.90;;;;;;4937852;29;20271;-82
2023/05/25 05:42:18;;;;;;;16.17;7.87;;;11.50;66.40;;;;;;4938471;29;20188;-81
2023/05/25 05:44:43;;;;;;;16.77;6.77;;;11.70;67.50;;;;;;4938104;29;20181;-83
2023/05/25 05:47:09;;;;;;;15.60;7.47;;;11.70;60.20;;;;;;4939863;29;20273;-83
2023/05/25 05:49:37;;;;;;;16.57;8.07;;;11.90;60.10;;;;;;4938248;29;20177;-82
2023/05/25 05:52:04;;;;;;;16.97;7.70;;;12.00;53.80;;;;;;4939864;29;20169;-88
2023/05/25 05:54:30;;;;;;;16.10;7.57;;;12.20;46.70;;;;;;4938023;29;20188;-84
2023/05/25 05:56:56;;;;;;;17.47;7.47;;;12.40;40.50;;;;;;4940203;29;20175;-82
2023/05/25 05:59:22;;;;;;;12.47;7.13;;;12.40;35.60;;;;;;4938236;29;20229;-83
2023/05/25 06:01:48;;;;;;;16.93;7.60;;;12.60;29.20;;;;;;4937494;29;20613;-84
2023/05/25 06:04:15;;;;;;;14.20;6.70;;;12.50;23.60;;;;;;4940048;29;20204;-81
2023/05/25 06:06:42;;;;;;;16.10;8.50;;;12.60;21.80;;;;;;4935961;29;20256;-85
2023/05/25 06:09:07;;;;;;;12.03;6.57;;;12.70;21.20;;;;;;4930122;29;20189;-83
2023/05/25 06:11:35;;;;;;;13.47;6.50;;;12.70;19.30;;;;;;4932213;29;20206;-84
2023/05/25 06:14:01;;;;;;;15.53;7.30;;;12.80;18.50;;;;;;4967431;29;20245;-82
2023/05/25 06:16:26;;;;;;;12.90;6.97;;;12.90;12.90;;;;;;4935780;29;20180;-82
2023/05/25 06:18:55;;;;;;;16.30;6.97;;;12.90;16.30;;;;;;4926020;29;20678;-83
2023/05/25 06:21:21;;;;;;;15.40;6.97;;;13.00;10.60;;;;;;4920372;29;20573;-82
2023/05/25 06:23:47;;;;;;;16.13;6.87;;;13.00;8.70;;;;;;4919704;29;20193;-84
2023/05/25 06:26:13;;;;;;;11.93;6.83;;;13.00;10.00;;;;;;4921277;29;20181;-82
2023/05/25 06:28:39;;;;;;;15.97;6.50;;;13.10;4.50;;;;;;4921419;29;20195;-82
2023/05/25 06:31:05;;;;;;;10.97;7.23;;;13.20;3.60;;;;;;4921054;29;20174;-82
2023/05/25 06:33:32;;;;;;;13.37;6.57;;;13.20;1.00;;;;;;4918821;29;20568;-82
2023/05/25 06:35:59;;;;;;;9.87;5.70;;;13.10;1.10;;;;;;4919822;29;20531;-83
2023/05/25 06:38:28;;;;;;;11.93;6.07;;;13.10;1.00;;;;;;4919047;29;20178;-83
2023/05/25 06:40:53;;;;;;;14.00;6.60;;;13.00;1.00;;;;;;4950562;29;20540;-82
2023/05/25 06:43:21;;;;;;;16.43;6.83;;;12.90;1.60;;;;;;4920669;29;20721;-83
2023/05/25 06:45:49;;;;;;;13.23;7.80;;;12.80;5.20;;;;;;4920488;29;20185;-83
2023/05/25 06:48:14;;;;;;;11.73;6.50;;;12.90;8.70;;;;;;4952534;29;20174;-83
2023/05/25 06:50:41;;;;;;;14.37;6.77;;;13.10;5.70;;;;;;4920943;29;20254;-82
2023/05/25 06:53:10;;;;;;;13.90;7.03;;;13.00;3.90;;;;;;4919545;29;20212;-83
2023/05/25 06:55:36;;;;;;;15.33;6.33;;;13.20;2.30;;;;;;4918343;29;20178;-81
2023/05/25 06:58:02;;;;;;;12.20;6.63;;;13.20;1.00;;;;;;4919036;29;20276;-84
2023/05/25 07:00:28;;;;;;;10.93;5.60;;;13.30;1.00;;;;;;4918963;29;20650;-84
2023/05/25 07:02:54;;;;;;;14.57;7.20;;;13.20;1.00;;;;;;4918167;29;20182;-83
2023/05/25 07:05:19;;;;;;;13.90;6.87;;;13.20;1.00;;;;;;4918224;29;20181;-83
2023/05/25 07:07:46;;;;;;;12.00;6.30;;;13.20;2.60;;;;;;4919393;29;20589;-82
2023/05/25 07:10:12;;;;;;;13.20;6.10;;;13.30;1.00;;;;;;4935810;29;20647;-84
2023/05/25 07:12:37;;;;;;;14.60;6.60;;;13.40;1.00;;;;;;4938668;29;20200;-84
2023/05/25 07:15:04;;;;;;;12.53;5.50;;;13.40;1.00;;;;;;4937150;29;20176;-84
2023/05/25 07:17:30;;;;;;;12.97;6.17;;;13.40;1.00;;;;;;4938156;29;20253;-84
2023/05/25 07:19:56;;;;;;;15.10;6.43;;;13.40;1.00;;;;;;4937218;29;20198;-83
2023/05/25 07:22:22;;;;;;;13.57;6.30;;;13.60;1.00;;;;;;4938537;29;20177;-81
2023/05/25 07:24:48;;;;;;;15.57;6.00;;;13.70;1.00;;;;;;4936870;29;20169;-82
2023/05/25 07:27:15;;;;;;;12.37;5.70;;;13.90;1.00;;;;;;4937814;29;20173;-82
2023/05/25 07:29:41;;;;;;;15.80;6.30;;;14.10;1.00;;;;;;4937857;29;20180;-82
2023/05/25 07:32:06;;;;;;;14.53;6.30;;;14.10;1.00;;;;;;4936201;29;20179;-83
2023/05/25 07:34:36;;;;;;;10.63;5.20;;;14.00;1.00;;;;;;4938605;29;20181;-83
2023/05/25 07:37:01;;;;;;;11.47;5.80;;;14.00;1.00;;;;;;4937692;29;20624;-81
2023/05/25 07:39:27;;;;;;;11.17;5.30;;;14.20;1.00;;;;;;4939225;29;20229;-82
2023/05/25 07:41:53;;;;;;;13.00;5.30;;;14.40;1.00;;;;;;4939280;29;20185;-82
2023/05/25 07:44:19;;;;;;;12.37;5.03;;;14.50;1.00;;;;;;4937837;29;20203;-80
2023/05/25 07:46:44;;;;;;;13.87;4.97;;;14.70;1.00;;;;;;4939078;29;20555;-83
2023/05/25 07:49:14;;;;;;;15.20;5.23;;;14.60;1.00;;;;;;4938969;29;20655;-83
2023/05/25 07:51:44;;;;;;;11.33;5.27;;;14.50;1.00;;;;;;4939824;29;20180;-83
2023/05/25 07:54:10;;;;;;;11.63;4.50;;;14.50;1.00;;;;;;4971080;28;20227;-84
2023/05/25 07:56:36;;;;;;;17.83;5.27;;;14.50;1.00;;;;;;4945649;29;20173;-80
2023/05/25 07:59:02;;;;;;;9.10;3.87;;;14.70;1.00;;;;;;4942909;29;20223;-80
2023/05/25 08:01:28;;;;;;;9.43;4.33;;;14.60;1.00;;;;;;4957565;28;20177;-81
2023/05/25 08:03:54;;;;;;;10.80;4.50;;;14.60;1.00;;;;;;4958104;28;20267;-80
2023/05/25 08:06:23;;;;;;;11.23;5.00;;;14.70;1.00;;;;;;4956821;28;20181;-84
2023/05/25 08:08:49;;;;;;;11.17;4.73;;;14.80;1.00;;;;;;4938716;29;20276;-82
2023/05/25 08:11:16;;;;;;;9.93;4.83;;;14.90;1.00;;;;;;4938411;29;20226;-82
2023/05/25 08:13:44;;;;;;;10.80;4.60;;;14.90;1.00;;;;;;4935957;29;20215;-83
2023/05/25 08:16:10;;;;;;;14.37;4.97;;;15.00;1.00;;;;;;4937115;29;20178;-82
2023/05/25 08:18:38;;;;;;;11.77;4.53;;;15.20;1.00;;;;;;4936854;29;20192;-82
2023/05/25 08:21:03;;;;;;;10.10;4.70;;;15.30;1.00;;;;;;4956943;28;20228;-84
2023/05/25 08:23:29;;;;;;;11.30;4.57;;;15.40;1.00;;;;;;4956375;28;20181;-82
2023/05/25 08:25:57;;;;;;;14.47;5.13;;;15.50;1.00;;;;;;4973904;28;20188;-82
2023/05/25 08:28:24;;;;;;;11.07;5.17;;;15.50;1.00;;;;;;4974369;28;20601;-83
2023/05/25 08:30:52;;;;;;;12.60;5.80;;;15.50;1.00;;;;;;4970878;28;20177;-81
2023/05/25 08:33:18;;;;;;;9.80;4.90;;;15.40;1.00;;;;;;4968313;28;20217;-82
2023/05/25 08:35:48;;;;;;;8.57;4.43;;;15.60;1.00;;;;;;4936899;29;20203;-82
2023/05/25 08:38:15;;;;;;;11.73;5.40;;;15.70;1.00;;;;;;4971705;28;20181;-83
2023/05/25 08:40:45;;;;;;;13.60;5.20;;;15.60;1.00;;;;;;4971392;28;20176;-83
2023/05/25 08:43:11;;;;;;;10.87;4.50;;;15.60;1.00;;;;;;4971240;28;20189;-82
2023/05/25 08:45:37;;;;;;;11.97;5.03;;;15.70;1.00;;;;;;4938901;29;20183;-83
2023/05/25 08:48:09;;;;;;;9.17;5.37;;;15.60;1.00;;;;;;4939266;29;20292;-83
2023/05/25 08:50:37;;;;;;;9.50;4.77;;;15.40;1.00;;;;;;4971285;28;20563;-84
2023/05/25 08:53:10;;;;;;;9.27;4.03;;;15.60;1.00;;;;;;4940739;29;20721;-83
2023/05/25 08:55:37;;;;;;;11.27;5.03;;;15.50;1.00;;;;;;4972484;28;20185;-82
2023/05/25 08:58:15;;;;;;;10.47;4.73;;;15.50;1.00;;;;;;4942036;29;20249;-83
2023/05/25 09:00:53;;;;;;;11.53;4.70;;;15.70;1.00;;;;;;4971297;28;20705;-82
2023/05/25 09:03:20;;;;;;;11.17;4.27;;;16.00;1.00;;;;;;4972778;28;20649;-82
2023/05/25 09:05:46;;;;;;;11.40;4.33;;;16.30;1.00;;;;;;4941650;29;20177;-82
2023/05/25 09:08:14;;;;;;;11.77;4.60;;;16.60;1.00;;;;;;4939445;29;20197;-82
2023/05/25 09:10:41;;;;;;;10.07;4.93;;;16.70;1.00;;;;;;4971611;28;20188;-82
2023/05/25 09:13:06;;;;;;;10.70;4.90;;;16.60;1.00;;;;;;4944359;29;20223;-83
2023/05/25 09:15:32;;;;;;;11.30;5.10;;;16.40;1.00;;;;;;4975231;28;20205;-83
2023/05/25 09:18:02;;;;;;;8.00;4.50;;;16.30;1.00;;;;;;4971717;28;20209;-83
2023/05/25 09:20:30;;;;;;;7.53;4.53;;;16.30;1.00;;;;;;4971827;28;20228;-82
2023/05/25 09:22:58;;;;;;;8.87;4.70;;;16.50;1.00;;;;;;4940962;29;20570;-82
2023/05/25 09:25:26;;;;;;;9.70;4.90;;;16.20;1.00;;;;;;4983242;28;20193;-82
2023/05/25 09:27:53;;;;;;;12.23;4.30;;;16.20;1.00;;;;;;4988831;28;20185;-83
2023/05/25 09:30:19;;;;;;;6.93;4.17;;;16.10;1.00;;;;;;4985440;28;20187;-83
2023/05/25 09:32:46;;;;;;;9.70;4.83;;;16.10;1.00;;;;;;4957477;29;20260;-83
2023/05/25 09:35:13;;;;;;;9.67;4.20;;;16.10;1.00;;;;;;4980218;28;20200;-83
2023/05/25 09:37:43;;;;;;;8.47;4.80;;;16.30;1.00;;;;;;4973874;28;20196;-82
2023/05/25 09:40:16;;;;;;;9.80;4.60;;;16.30;1.00;;;;;;4971872;28;20184;-82
2023/05/25 09:42:42;;;;;;;10.37;4.37;;;16.30;1.00;;;;;;4970804;28;20184;-83
2023/05/25 09:45:09;;;;;;;8.93;3.90;;;16.10;1.00;;;;;;4971285;28;20537;-83
2023/05/25 09:47:37;;;;;;;12.10;4.10;;;16.20;1.00;;;;;;4939433;29;20687;-82
2023/05/25 09:50:03;;;;;;;10.07;4.30;;;16.30;1.00;;;;;;4970148;28;20222;-82
2023/05/25 09:52:28;;;;;;;8.33;3.63;;;16.40;1.00;;;;;;4970863;28;20247;-82
2023/05/25 09:54:56;;;;;;;10.07;4.00;;;16.60;1.00;;;;;;4970847;28;20182;-84
2023/05/25 09:57:22;;;;;;;9.30;3.97;;;16.80;1.00;;;;;;4940028;29;20183;-82
2023/05/25 09:59:48;;;;;;;9.07;3.70;;;16.90;1.00;;;;;;4939204;29;20194;-84
2023/05/25 10:02:14;;;;;;;7.80;4.33;;;16.90;1.00;;;;;;4939746;29;20196;-82
2023/05/25 10:04:40;;;;;;;9.27;4.10;;;16.60;1.00;;;;;;4970979;28;20558;-82
2023/05/25 10:07:07;;;;;;;7.43;4.43;;;16.60;1.00;;;;;;4973198;28;20665;-82
2023/05/25 10:09:40;;;;;;;6.27;3.73;;;16.50;1.00;;;;;;4970804;28;20216;-81
2023/05/25 10:12:07;;;;;;;10.70;4.63;;;16.60;1.00;;;;;;4940267;29;20240;-81
2023/05/25 10:14:36;;;;;;;9.27;3.63;;;16.70;1.00;;;;;;4940182;29;20276;-82
2023/05/25 10:17:05;;;;;;;6.23;3.33;;;16.90;1.00;;;;;;4970122;28;20513;-82
2023/05/25 10:19:59;;;;;;;11.00;3.97;;;17.00;99.90;;;;;;4938715;29;20236;-83
2023/05/25 10:22:46;;;;;;;10.53;4.27;;;17.40;1.00;;;;;;4938908;29;20546;-82
2023/05/25 10:25:41;;;;;;;10.17;3.37;;;17.60;1.00;;;;;;4938999;29;20169;-83
2023/05/25 10:28:17;;;;;;;11.47;4.27;;;17.60;99.90;;;;;;4933793;29;20201;-82
2023/05/25 10:30:45;;;;;;;8.77;2.90;;;17.20;99.90;;;;;;4970524;28;20176;-84
2023/05/25 10:33:11;;;;;;;7.80;3.13;;;17.10;99.90;;;;;;4970140;28;20347;-82
2023/05/25 10:35:39;;;;;;;5.87;3.13;;;17.20;99.90;;;;;;4939741;29;20173;-82
2023/05/25 10:38:05;;;;;;;8.93;3.10;;;17.20;99.90;;;;;;4970742;28;20646;-82
2023/05/25 10:40:33;;;;;;;6.73;3.43;;;17.40;99.90;;;;;;4939769;29;20497;-85
2023/05/25 10:42:59;;;;;;;10.47;3.70;;;17.40;99.90;;;;;;4938688;29;20248;-84
2023/05/25 10:45:25;;;;;;;7.03;3.57;;;17.50;99.90;;;;;;4938165;29;20173;-82
2023/05/25 10:47:51;;;;;;;9.37;3.43;;;17.70;99.90;;;;;;4938543;29;20192;-85
2023/05/25 10:50:21;;;;;;;15.13;3.50;;;17.70;99.90;;;;;;4969075;28;20271;-84
2023/05/25 10:53:00;;;;;;;19.73;4.17;;;17.40;99.90;;;;;;4968812;28;20241;-83
2023/05/25 10:55:30;;;;;;;8.70;3.40;;;17.50;99.90;;;;;;4937810;29;20168;-83
2023/05/25 10:58:14;;;;;;;6.77;3.23;;;17.40;99.90;;;;;;4943611;28;20186;-82
2023/05/25 11:00:40;;;;;;;9.27;3.43;;;17.40;99.90;;;;;;4960424;28;20184;-84
2023/05/25 11:03:07;;;;;;;11.37;4.10;;;17.30;99.90;;;;;;4944382;29;20164;-82
2023/05/25 11:05:34;;;;;;;8.23;3.37;;;17.60;99.90;;;;;;4973038;28;20280;-82
2023/05/25 11:08:08;;;;;;;6.80;3.03;;;17.70;99.90;;;;;;4973411;28;20291;-82
2023/05/25 11:10:48;;;;;;;9.30;4.00;;;17.80;99.90;;;;;;4942286;29;20182;-82
2023/05/25 11:13:34;;;;;;;6.77;3.70;;;17.90;99.90;;;;;;4970505;28;20219;-81
2023/05/25 11:16:34;;;;;;;10.90;3.80;;;18.20;99.90;;;;;;4940049;29;20167;-83
2023/05/25 11:19:01;;;;;;;5.00;2.43;;;18.10;99.90;;;;;;4937363;29;20206;-81
2023/05/25 11:21:36;;;;;;;8.37;3.50;;;18.10;99.90;;;;;;4975114;28;20589;-83
2023/05/25 11:24:10;;;;;;;7.40;3.77;;;18.10;99.90;;;;;;4945035;29;20174;-82
2023/05/25 11:26:36;;;;;;;5.13;3.10;;;17.80;99.90;;;;;;4980864;28;20178;-81
2023/05/25 11:29:12;;;;;;;8.63;3.80;;;17.80;99.90;;;;;;4969906;28;20663;-83
2023/05/25 11:31:40;;;;;;;6.60;3.67;;;18.00;99.90;;;;;;4940332;29;20173;-82
2023/05/25 11:34:06;;;;;;;9.17;3.43;;;18.20;99.90;;;;;;4928803;29;20228;-83
2023/05/25 11:36:34;;;;;;;6.17;3.50;;;18.30;99.90;;;;;;4969363;28;20270;-85
2023/05/25 11:39:04;;;;;;;6.57;3.20;;;18.20;99.90;;;;;;4969359;28;20188;-81
2023/05/25 11:41:33;;;;;;;6.10;3.27;;;18.30;99.90;;;;;;4945193;29;20169;-83
2023/05/25 11:44:05;;;;;;;8.67;4.00;;;18.30;99.90;;;;;;4969133;28;20275;-82
2023/05/25 11:46:31;;;;;;;8.10;3.77;;;18.40;99.90;;;;;;4937232;29;20205;-82
2023/05/25 11:49:00;;;;;;;7.07;3.10;;;18.50;99.90;;;;;;4938366;29;20244;-83
2023/05/25 11:51:28;;;;;;;7.43;3.97;;;18.50;99.90;;;;;;4967909;28;20301;-84
2023/05/25 11:53:54;;;;;;;11.97;4.07;;;18.20;99.90;;;;;;4937773;29;20300;-85
2023/05/25 11:56:21;;;;;;;5.73;3.47;;;17.90;99.90;;;;;;4937956;29;20175;-85
2023/05/25 11:58:48;;;;;;;7.53;4.00;;;17.60;99.90;;;;;;4967650;28;20189;-81
2023/05/25 12:01:20;;;;;;;7.13;4.00;;;17.60;1.00;;;;;;4937105;29;20173;-82
2023/05/25 12:03:54;;;;;;;8.40;4.43;;;17.70;99.90;;;;;;4937075;29;20547;-83
2023/05/25 12:06:39;;;;;;;11.37;4.87;;;17.80;99.90;;;;;;4967334;28;20187;-83
2023/05/25 12:09:10;;;;;;;8.37;4.57;;;18.20;99.90;;;;;;4967345;28;20661;-82
2023/05/25 12:11:37;;;;;;;10.03;4.77;;;18.20;99.90;;;;;;4936290;29;20169;-83
2023/05/25 12:14:05;;;;;;;8.00;4.60;;;18.30;99.90;;;;;;4938025;29;20218;-86
2023/05/25 12:16:33;;;;;;;7.67;4.27;;;18.40;99.90;;;;;;4968477;28;20184;-83
2023/05/25 12:19:00;;;;;;;10.10;4.77;;;18.40;99.90;;;;;;4937371;29;20203;-83
2023/05/25 12:21:27;;;;;;;7.50;4.07;;;18.50;99.90;;;;;;4937806;29;20189;-83
2023/05/25 12:23:53;;;;;;;10.43;4.63;;;18.20;99.90;;;;;;4937468;29;20188;-84
2023/05/25 12:26:20;;;;;;;6.93;4.30;;;18.00;99.90;;;;;;4968081;28;20184;-83
2023/05/25 12:29:01;;;;;;;8.67;4.03;;;18.10;99.90;;;;;;4937806;29;20244;-82
2023/05/25 12:31:34;;;;;;;6.93;4.00;;;18.10;99.90;;;;;;4968996;28;20188;-82
2023/05/25 12:34:07;;;;;;;6.93;3.87;;;18.20;99.90;;;;;;4938158;29;20243;-83
2023/05/25 12:36:43;;;;;;;8.57;4.07;;;18.30;99.90;;;;;;4939275;29;20174;-81
2023/05/25 12:39:11;;;;;;;6.07;3.70;;;18.30;99.90;;;;;;4974773;28;20184;-83
2023/05/25 12:41:44;;;;;;;7.13;4.27;;;18.20;99.90;;;;;;4976346;28;20711;-82
2023/05/25 12:44:25;;;;;;;6.83;4.10;;;18.30;99.90;;;;;;4947551;29;20254;-81
2023/05/25 12:46:53;;;;;;;9.77;4.33;;;18.40;99.90;;;;;;4984738;28;20207;-82
2023/05/25 12:49:27;;;;;;;9.47;3.93;;;18.30;99.90;;;;;;4985564;28;20625;-82